sensor_id;sensor_type;location;lat;lon;timestamp;pressure;altitude;pressure_sealevel;temperature;humidity
13235;BME280;6683;48.506;9.050;2023-02-28T14:42:37;98741.13;;;5.29;79.23
13235;BME280;6683;48.506;9.050;2023-02-28T14:45:42;98744.53;;;5.95;77.03
13235;BME280;6683;48.506;9.050;2023-02-28T14:48:45;98732.28;;;6.50;74.63
13235;BME280;6683;48.506;9.050;2023-02-28T14:51:50;98730.41;;;6.95;73.72
13235;BME280;6683;48.506;9.050;2023-02-28T14:55:06;98727.63;;;7.32;72.28
13235;BME280;6683;48.506;9.050;2023-02-28T14:58:24;98719.28;;;7.62;71.45
13235;BME280;6683;48.506;9.050;2023-02-28T15:01:27;98725.50;;;7.86;70.52
13235;BME280;6683;48.506;9.050;2023-02-28T15:04:29;98729.72;;;8.05;69.79
13235;BME280;6683;48.506;9.050;2023-02-28T15:07:34;98736.84;;;8.21;69.45
13235;BME280;6683;48.506;9.050;2023-02-28T15:10:36;98727.88;;;8.31;68.96
13235;BME280;6683;48.506;9.050;2023-02-28T15:13:46;98727.72;;;8.41;68.84
13235;BME280;6683;48.506;9.050;2023-02-28T15:16:55;98725.94;;;8.49;68.15
13235;BME280;6683;48.506;9.050;2023-02-28T15:20:01;98734.03;;;8.56;67.82
13235;BME280;6683;48.506;9.050;2023-02-28T15:23:03;98737.69;;;8.63;67.67
13235;BME280;6683;48.506;9.050;2023-02-28T15:26:06;98732.44;;;8.71;67.38
13235;BME280;6683;48.506;9.050;2023-02-28T15:29:16;98722.09;;;8.77;67.31
13235;BME280;6683;48.506;9.050;2023-02-28T15:32:28;98719.09;;;8.80;66.70
13235;BME280;6683;48.506;9.050;2023-02-28T15:35:32;98731.31;;;8.81;66.05
13235;BME280;6683;48.506;9.050;2023-02-28T15:38:36;98728.66;;;8.81;66.16
13235;BME280;6683;48.506;9.050;2023-02-28T15:41:38;98728.66;;;8.81;65.56
13235;BME280;6683;48.506;9.050;2023-02-28T15:44:42;98730.28;;;8.82;65.47
13235;BME280;6683;48.506;9.050;2023-02-28T15:47:46;98730.28;;;8.82;65.18
13235;BME280;6683;48.506;9.050;2023-02-28T15:50:51;98735.44;;;8.84;65.19
13235;BME280;6683;48.506;9.050;2023-02-28T15:53:57;98723.88;;;8.85;65.25
13235;BME280;6683;48.506;9.050;2023-02-28T15:57:05;98727.53;;;8.84;64.69
13235;BME280;6683;48.506;9.050;2023-02-28T16:00:16;98730.97;;;8.84;64.78
13235;BME280;6683;48.506;9.050;2023-02-28T16:03:27;98726.03;;;8.81;64.70
13235;BME280;6683;48.506;9.050;2023-02-28T16:06:37;98742.78;;;8.80;64.15
13235;BME280;6683;48.506;9.050;2023-02-28T16:09:40;98729.81;;;8.79;63.92
13235;BME280;6683;48.506;9.050;2023-02-28T16:12:43;98725.53;;;8.78;63.61
13235;BME280;6683;48.506;9.050;2023-02-28T16:15:47;98745.09;;;8.75;63.63
13235;BME280;6683;48.506;9.050;2023-02-28T16:18:52;98741.97;;;8.72;63.54
13235;BME280;6683;48.506;9.050;2023-02-28T16:21:55;98744.94;;;8.69;63.19
13235;BME280;6683;48.506;9.050;2023-02-28T16:24:57;98747.88;;;8.66;63.29
13235;BME280;6683;48.506;9.050;2023-02-28T16:28:00;98749.34;;;8.60;63.13
13235;BME280;6683;48.506;9.050;2023-02-28T16:31:06;98748.31;;;8.53;63.28
13235;BME280;6683;48.506;9.050;2023-02-28T16:34:11;98753.91;;;8.50;63.04
13235;BME280;6683;48.506;9.050;2023-02-28T16:37:15;98753.06;;;8.42;62.81
13235;BME280;6683;48.506;9.050;2023-02-28T16:40:21;98760.59;;;8.37;62.82
13235;BME280;6683;48.506;9.050;2023-02-28T16:43:25;98758.47;;;8.32;62.67
13235;BME280;6683;48.506;9.050;2023-02-28T16:46:33;98755.75;;;8.24;63.02
13235;BME280;6683;48.506;9.050;2023-02-28T16:49:36;98757.22;;;8.19;62.55
13235;BME280;6683;48.506;9.050;2023-02-28T16:52:38;98770.16;;;8.12;62.69
13235;BME280;6683;48.506;9.050;2023-02-28T16:55:41;98763.06;;;8.04;62.64
13235;BME280;6683;48.506;9.050;2023-02-28T16:58:44;98771.56;;;7.98;62.49
13235;BME280;6683;48.506;9.050;2023-02-28T17:01:48;98770.53;;;7.91;62.67
13235;BME280;6683;48.506;9.050;2023-02-28T17:04:51;98770.34;;;7.85;62.54
13235;BME280;6683;48.506;9.050;2023-02-28T17:07:53;98779.84;;;7.78;62.61
13235;BME280;6683;48.506;9.050;2023-02-28T17:10:56;98786.50;;;7.72;62.51
13235;BME280;6683;48.506;9.050;2023-02-28T17:13:58;98794.19;;;7.66;62.51
13235;BME280;6683;48.506;9.050;2023-02-28T17:17:04;98795.91;;;7.57;62.63
13235;BME280;6683;48.506;9.050;2023-02-28T17:20:11;98798.34;;;7.51;62.66
13235;BME280;6683;48.506;9.050;2023-02-28T17:23:14;98790.25;;;7.44;62.70
13235;BME280;6683;48.506;9.050;2023-02-28T17:26:19;98798.75;;;7.38;62.59
13235;BME280;6683;48.506;9.050;2023-02-28T17:29:22;98796.84;;;7.31;62.19
13235;BME280;6683;48.506;9.050;2023-02-28T17:32:26;98801.09;;;7.23;62.55
13235;BME280;6683;48.506;9.050;2023-02-28T17:35:29;98811.34;;;7.17;62.49
13235;BME280;6683;48.506;9.050;2023-02-28T17:38:31;98811.94;;;7.11;62.72
13235;BME280;6683;48.506;9.050;2023-02-28T17:41:33;98812.69;;;7.03;62.63
13235;BME280;6683;48.506;9.050;2023-02-28T17:44:36;98822.94;;;6.97;62.83
13235;BME280;6683;48.506;9.050;2023-02-28T17:47:42;98821.75;;;6.91;62.87
13235;BME280;6683;48.506;9.050;2023-02-28T17:50:45;98832.00;;;6.85;62.42
13235;BME280;6683;48.506;9.050;2023-02-28T17:53:48;98827.34;;;6.79;62.67
13235;BME280;6683;48.506;9.050;2023-02-28T17:56:50;98830.72;;;6.71;62.70
13235;BME280;6683;48.506;9.050;2023-02-28T17:59:53;98832.94;;;6.66;62.49
13235;BME280;6683;48.506;9.050;2023-02-28T18:02:56;98827.44;;;6.60;62.78
13235;BME280;6683;48.506;9.050;2023-02-28T18:05:59;98834.13;;;6.54;62.12
13235;BME280;6683;48.506;9.050;2023-02-28T18:09:02;98834.69;;;6.48;62.36
13235;BME280;6683;48.506;9.050;2023-02-28T18:12:05;98839.53;;;6.43;62.73
13235;BME280;6683;48.506;9.050;2023-02-28T18:15:09;98843.56;;;6.37;62.58
13235;BME280;6683;48.506;9.050;2023-02-28T18:18:13;98835.44;;;6.31;62.34
13235;BME280;6683;48.506;9.050;2023-02-28T18:21:17;98847.34;;;6.25;62.42
13235;BME280;6683;48.506;9.050;2023-02-28T18:24:21;98846.09;;;6.20;62.63
13235;BME280;6683;48.506;9.050;2023-02-28T18:27:24;98842.44;;;6.13;62.83
13235;BME280;6683;48.506;9.050;2023-02-28T18:30:29;98840.66;;;6.04;62.20
13235;BME280;6683;48.506;9.050;2023-02-28T18:33:33;98839.28;;;6.00;62.25
13235;BME280;6683;48.506;9.050;2023-02-28T18:36:35;98838.19;;;5.93;62.49
13235;BME280;6683;48.506;9.050;2023-02-28T18:39:38;98844.81;;;5.87;62.37
13235;BME280;6683;48.506;9.050;2023-02-28T18:42:40;98834.03;;;5.81;62.76
13235;BME280;6683;48.506;9.050;2023-02-28T18:45:42;98838.22;;;5.74;62.56
13235;BME280;6683;48.506;9.050;2023-02-28T18:48:46;98837.94;;;5.67;62.35
13235;BME280;6683;48.506;9.050;2023-02-28T18:51:49;98838.50;;;5.61;62.78
13235;BME280;6683;48.506;9.050;2023-02-28T18:54:52;98834.63;;;5.55;62.53
13235;BME280;6683;48.506;9.050;2023-02-28T18:57:54;98836.84;;;5.50;62.69
13235;BME280;6683;48.506;9.050;2023-02-28T19:00:57;98839.88;;;5.46;62.38
13235;BME280;6683;48.506;9.050;2023-02-28T19:04:03;98841.38;;;5.39;63.01
13235;BME280;6683;48.506;9.050;2023-02-28T19:07:19;98833.16;;;5.34;62.88
13235;BME280;6683;48.506;9.050;2023-02-28T19:10:22;98833.81;;;5.26;62.88
13235;BME280;6683;48.506;9.050;2023-02-28T19:14:30;98837.81;;;5.21;62.75
13235;BME280;6683;48.506;9.050;2023-02-28T19:17:55;98843.59;;;5.15;62.79
13235;BME280;6683;48.506;9.050;2023-02-28T19:21:00;98846.63;;;5.10;62.96
13235;BME280;6683;48.506;9.050;2023-02-28T19:24:03;98844.41;;;5.06;63.26
13235;BME280;6683;48.506;9.050;2023-02-28T19:27:05;98836.13;;;5.01;63.06
13235;BME280;6683;48.506;9.050;2023-02-28T19:34:01;98845.19;;;4.87;63.14
13235;BME280;6683;48.506;9.050;2023-02-28T19:37:35;98842.84;;;4.84;62.79
13235;BME280;6683;48.506;9.050;2023-02-28T19:40:38;98849.19;;;4.81;62.98
13235;BME280;6683;48.506;9.050;2023-02-28T19:43:45;98845.19;;;4.77;63.37
13235;BME280;6683;48.506;9.050;2023-02-28T19:46:48;98842.13;;;4.72;63.21
13235;BME280;6683;48.506;9.050;2023-02-28T19:49:58;98840.63;;;4.70;63.36
13235;BME280;6683;48.506;9.050;2023-02-28T19:53:02;98834.00;;;4.66;63.24
13235;BME280;6683;48.506;9.050;2023-02-28T19:56:07;98835.22;;;4.62;63.23
13235;BME280;6683;48.506;9.050;2023-02-28T19:59:12;98838.13;;;4.59;63.36
13235;BME280;6683;48.506;9.050;2023-02-28T20:02:21;98835.78;;;4.56;63.44
13235;BME280;6683;48.506;9.050;2023-02-28T20:05:26;98845.66;;;4.52;63.49
13235;BME280;6683;48.506;9.050;2023-02-28T20:08:30;98841.66;;;4.48;63.01
13235;BME280;6683;48.506;9.050;2023-02-28T20:11:32;98835.16;;;4.43;63.22
13235;BME280;6683;48.506;9.050;2023-02-28T20:14:35;98842.44;;;4.39;63.73
13235;BME280;6683;48.506;9.050;2023-02-28T20:17:38;98844.50;;;4.36;63.68
13235;BME280;6683;48.506;9.050;2023-02-28T20:20:41;98842.44;;;4.30;63.25
13235;BME280;6683;48.506;9.050;2023-02-28T20:23:46;98848.03;;;4.25;63.08
13235;BME280;6683;48.506;9.050;2023-02-28T20:26:48;98838.81;;;4.21;63.47
13235;BME280;6683;48.506;9.050;2023-02-28T20:29:52;98844.28;;;4.18;63.40
13235;BME280;6683;48.506;9.050;2023-02-28T20:32:54;98835.19;;;4.13;63.69
13235;BME280;6683;48.506;9.050;2023-02-28T20:35:59;98836.53;;;4.07;63.32
13235;BME280;6683;48.506;9.050;2023-02-28T20:39:04;98831.81;;;4.01;63.02
13235;BME280;6683;48.506;9.050;2023-02-28T20:42:06;98832.09;;;3.98;63.53
13235;BME280;6683;48.506;9.050;2023-02-28T20:45:09;98843.06;;;3.92;63.69
13235;BME280;6683;48.506;9.050;2023-02-28T20:48:12;98834.78;;;3.87;63.60
13235;BME280;6683;48.506;9.050;2023-02-28T20:51:14;98837.75;;;3.82;63.98
13235;BME280;6683;48.506;9.050;2023-02-28T20:54:18;98835.66;;;3.76;63.62
13235;BME280;6683;48.506;9.050;2023-02-28T20:57:21;98830.97;;;3.70;63.46
13235;BME280;6683;48.506;9.050;2023-02-28T21:00:23;98827.91;;;3.65;63.90
13235;BME280;6683;48.506;9.050;2023-02-28T21:03:26;98833.53;;;3.61;63.59
13235;BME280;6683;48.506;9.050;2023-02-28T21:06:34;98834.84;;;3.55;64.01
13235;BME280;6683;48.506;9.050;2023-02-28T21:09:38;98833.44;;;3.51;63.61
13235;BME280;6683;48.506;9.050;2023-02-28T21:12:41;98836.41;;;3.47;63.86
13235;BME280;6683;48.506;9.050;2023-02-28T21:16:12;98836.09;;;3.40;63.49
13235;BME280;6683;48.506;9.050;2023-02-28T21:19:15;98838.97;;;3.37;63.78
13235;BME280;6683;48.506;9.050;2023-02-28T21:22:18;98834.13;;;3.33;63.73
13235;BME280;6683;48.506;9.050;2023-02-28T21:25:22;98835.19;;;3.30;63.52
13235;BME280;6683;48.506;9.050;2023-02-28T21:28:24;98844.09;;;3.28;63.66
13235;BME280;6683;48.506;9.050;2023-02-28T21:31:30;98846.97;;;3.24;63.63
13235;BME280;6683;48.506;9.050;2023-02-28T21:34:33;98849.00;;;3.21;63.97
13235;BME280;6683;48.506;9.050;2023-02-28T21:37:36;98848.53;;;3.16;64.08
13235;BME280;6683;48.506;9.050;2023-02-28T21:40:41;98850.44;;;3.14;63.90
13235;BME280;6683;48.506;9.050;2023-02-28T21:43:44;98849.16;;;3.08;63.88
13235;BME280;6683;48.506;9.050;2023-02-28T21:46:50;98856.41;;;3.05;64.31
13235;BME280;6683;48.506;9.050;2023-02-28T21:49:54;98848.94;;;3.00;64.40
13235;BME280;6683;48.506;9.050;2023-02-28T21:52:57;98845.63;;;2.98;64.06
13235;BME280;6683;48.506;9.050;2023-02-28T21:56:01;98844.22;;;2.94;63.92
13235;BME280;6683;48.506;9.050;2023-02-28T21:59:05;98840.19;;;2.90;64.28
13235;BME280;6683;48.506;9.050;2023-02-28T22:02:09;98832.75;;;2.86;64.42
13235;BME280;6683;48.506;9.050;2023-02-28T22:05:12;98842.47;;;2.84;64.33
13235;BME280;6683;48.506;9.050;2023-02-28T22:08:14;98835.97;;;2.78;64.40
13235;BME280;6683;48.506;9.050;2023-02-28T22:11:19;98834.44;;;2.76;64.59
13235;BME280;6683;48.506;9.050;2023-02-28T22:14:22;98833.84;;;2.72;64.48
13235;BME280;6683;48.506;9.050;2023-02-28T22:17:24;98830.53;;;2.70;64.53
13235;BME280;6683;48.506;9.050;2023-02-28T22:20:27;98834.22;;;2.68;64.59
13235;BME280;6683;48.506;9.050;2023-02-28T22:23:30;98831.03;;;2.64;64.36
13235;BME280;6683;48.506;9.050;2023-02-28T22:26:34;98839.91;;;2.62;64.26
13235;BME280;6683;48.506;9.050;2023-02-28T22:29:37;98841.81;;;2.60;64.62
13235;BME280;6683;48.506;9.050;2023-02-28T22:32:39;98831.63;;;2.57;64.61
13235;BME280;6683;48.506;9.050;2023-02-28T22:35:41;98828.31;;;2.55;64.91
13235;BME280;6683;48.506;9.050;2023-02-28T22:38:45;98830.31;;;2.51;64.42
13235;BME280;6683;48.506;9.050;2023-02-28T22:41:50;98830.59;;;2.48;64.78
13235;BME280;6683;48.506;9.050;2023-02-28T22:44:55;98830.81;;;2.45;64.66
13235;BME280;6683;48.506;9.050;2023-02-28T22:47:57;98825.13;;;2.40;64.50
13235;BME280;6683;48.506;9.050;2023-02-28T22:51:01;98821.81;;;2.38;64.54
13235;BME280;6683;48.506;9.050;2023-02-28T22:54:04;98826.56;;;2.33;64.91
13235;BME280;6683;48.506;9.050;2023-02-28T22:57:08;98826.00;;;2.29;64.81
13235;BME280;6683;48.506;9.050;2023-02-28T23:00:12;98817.44;;;2.27;65.19
13235;BME280;6683;48.506;9.050;2023-02-28T23:03:15;98823.75;;;2.25;64.90
13235;BME280;6683;48.506;9.050;2023-02-28T23:06:20;98816.97;;;2.22;64.98
13235;BME280;6683;48.506;9.050;2023-02-28T23:09:23;98820.66;;;2.20;65.00
13235;BME280;6683;48.506;9.050;2023-02-28T23:12:26;98830.47;;;2.16;64.85
13235;BME280;6683;48.506;9.050;2023-02-28T23:15:30;98821.13;;;2.14;64.66
13235;BME280;6683;48.506;9.050;2023-02-28T23:18:32;98823.25;;;2.09;64.85
13235;BME280;6683;48.506;9.050;2023-02-28T23:21:35;98832.16;;;2.06;64.50
13235;BME280;6683;48.506;9.050;2023-02-28T23:24:38;98829.19;;;2.00;64.77
13235;BME280;6683;48.506;9.050;2023-02-28T23:27:42;98828.47;;;1.98;65.09
13235;BME280;6683;48.506;9.050;2023-02-28T23:30:44;98834.72;;;1.95;64.97
13235;BME280;6683;48.506;9.050;2023-02-28T23:33:47;98835.06;;;1.91;65.00
13235;BME280;6683;48.506;9.050;2023-02-28T23:36:49;98840.53;;;1.88;65.52
13235;BME280;6683;48.506;9.050;2023-02-28T23:39:52;98839.78;;;1.86;65.07
13235;BME280;6683;48.506;9.050;2023-02-28T23:42:56;98838.38;;;1.82;65.22
13235;BME280;6683;48.506;9.050;2023-02-28T23:45:59;98842.84;;;1.80;65.06
13235;BME280;6683;48.506;9.050;2023-02-28T23:49:01;98848.31;;;1.77;64.80
13235;BME280;6683;48.506;9.050;2023-02-28T23:52:04;98841.91;;;1.70;64.59
13235;BME280;6683;48.506;9.050;2023-02-28T23:55:07;98837.28;;;1.62;64.83
13235;BME280;6683;48.506;9.050;2023-02-28T23:58:11;98844.72;;;1.55;65.06
